sensor_id;sensor_type;location;lat;lon;timestamp;temperature;humidity
19033;DHT22;9649;51.042;13.804;2023-02-13T00:04:48;6.70;99.90
19033;DHT22;9649;51.042;13.804;2023-02-13T00:09:52;6.80;99.90
19033;DHT22;9649;51.042;13.804;2023-02-13T00:14:55;6.70;99.90
19033;DHT22;9649;51.042;13.804;2023-02-13T00:19:59;6.80;99.90
19033;DHT22;9649;51.042;13.804;2023-02-13T00:25:04;6.80;99.90
19033;DHT22;9649;51.042;13.804;2023-02-13T00:30:08;6.80;99.90
19033;DHT22;9649;51.042;13.804;2023-02-13T00:35:11;6.80;99.90
19033;DHT22;9649;51.042;13.804;2023-02-13T00:40:15;6.80;99.90
19033;DHT22;9649;51.042;13.804;2023-02-13T00:45:17;6.80;99.90
19033;DHT22;9649;51.042;13.804;2023-02-13T00:50:20;6.80;99.90
19033;DHT22;9649;51.042;13.804;2023-02-13T00:55:24;6.80;99.90
19033;DHT22;9649;51.042;13.804;2023-02-13T01:00:27;6.80;99.90
19033;DHT22;9649;51.042;13.804;2023-02-13T01:05:29;6.80;99.90
19033;DHT22;9649;51.042;13.804;2023-02-13T01:10:34;6.80;99.90
19033;DHT22;9649;51.042;13.804;2023-02-13T01:15:38;6.80;99.90
19033;DHT22;9649;51.042;13.804;2023-02-13T01:20:41;6.80;99.90
19033;DHT22;9649;51.042;13.804;2023-02-13T01:25:46;6.80;99.90
19033;DHT22;9649;51.042;13.804;2023-02-13T01:30:52;6.70;99.90
19033;DHT22;9649;51.042;13.804;2023-02-13T01:35:55;6.70;99.90
19033;DHT22;9649;51.042;13.804;2023-02-13T01:41:00;6.70;99.90
19033;DHT22;9649;51.042;13.804;2023-02-13T01:46:02;6.80;99.90
19033;DHT22;9649;51.042;13.804;2023-02-13T01:51:07;6.70;99.90
19033;DHT22;9649;51.042;13.804;2023-02-13T01:56:16;6.70;99.90
19033;DHT22;9649;51.042;13.804;2023-02-13T02:01:20;6.80;99.90
19033;DHT22;9649;51.042;13.804;2023-02-13T02:06:26;6.70;99.90
19033;DHT22;9649;51.042;13.804;2023-02-13T02:11:35;6.70;99.90
19033;DHT22;9649;51.042;13.804;2023-02-13T02:16:39;6.70;99.90
19033;DHT22;9649;51.042;13.804;2023-02-13T02:22:08;6.60;99.90
19033;DHT22;9649;51.042;13.804;2023-02-13T02:27:39;6.70;99.90
19033;DHT22;9649;51.042;13.804;2023-02-13T02:32:56;6.70;99.90
19033;DHT22;9649;51.042;13.804;2023-02-13T02:38:09;6.70;99.90
19033;DHT22;9649;51.042;13.804;2023-02-13T02:43:24;6.70;99.90
19033;DHT22;9649;51.042;13.804;2023-02-13T02:48:32;6.70;99.90
19033;DHT22;9649;51.042;13.804;2023-02-13T02:54:03;6.70;99.90
19033;DHT22;9649;51.042;13.804;2023-02-13T02:59:30;6.70;99.90
19033;DHT22;9649;51.042;13.804;2023-02-13T03:04:55;6.70;99.90
19033;DHT22;9649;51.042;13.804;2023-02-13T03:10:32;6.70;99.90
19033;DHT22;9649;51.042;13.804;2023-02-13T03:15:59;6.60;99.90
19033;DHT22;9649;51.042;13.804;2023-02-13T03:21:27;6.60;99.90
19033;DHT22;9649;51.042;13.804;2023-02-13T03:26:56;6.70;99.90
19033;DHT22;9649;51.042;13.804;2023-02-13T03:32:07;6.70;99.90
19033;DHT22;9649;51.042;13.804;2023-02-13T03:37:16;6.70;99.90
19033;DHT22;9649;51.042;13.804;2023-02-13T03:42:41;6.80;99.90
19033;DHT22;9649;51.042;13.804;2023-02-13T03:47:48;6.70;99.90
19033;DHT22;9649;51.042;13.804;2023-02-13T03:52:56;6.80;99.90
19033;DHT22;9649;51.042;13.804;2023-02-13T03:58:03;6.80;99.90
19033;DHT22;9649;51.042;13.804;2023-02-13T04:03:28;6.80;99.90
19033;DHT22;9649;51.042;13.804;2023-02-13T04:08:34;6.80;99.90
19033;DHT22;9649;51.042;13.804;2023-02-13T04:13:41;6.80;99.90
19033;DHT22;9649;51.042;13.804;2023-02-13T04:18:46;6.70;99.90
19033;DHT22;9649;51.042;13.804;2023-02-13T04:42:34;6.80;99.90
19033;DHT22;9649;51.042;13.804;2023-02-13T04:48:38;6.90;99.90
19033;DHT22;9649;51.042;13.804;2023-02-13T05:01:43;6.90;99.90
19033;DHT22;9649;51.042;13.804;2023-02-13T05:07:36;7.00;99.90
19033;DHT22;9649;51.042;13.804;2023-02-13T05:19:49;6.80;99.90
19033;DHT22;9649;51.042;13.804;2023-02-13T05:26:28;6.90;99.90
19033;DHT22;9649;51.042;13.804;2023-02-13T05:44:38;6.80;99.90
19033;DHT22;9649;51.042;13.804;2023-02-13T05:53:03;6.80;99.90
19033;DHT22;9649;51.042;13.804;2023-02-13T05:56:21;6.80;99.90
19033;DHT22;9649;51.042;13.804;2023-02-13T06:15:19;6.70;99.90
19033;DHT22;9649;51.042;13.804;2023-02-13T06:20:29;6.70;99.90
19033;DHT22;9649;51.042;13.804;2023-02-13T06:26:40;6.80;99.90
19033;DHT22;9649;51.042;13.804;2023-02-13T06:32:03;6.70;99.90
19033;DHT22;9649;51.042;13.804;2023-02-13T06:37:46;6.80;99.90
19033;DHT22;9649;51.042;13.804;2023-02-13T06:43:58;6.80;99.90
19033;DHT22;9649;51.042;13.804;2023-02-13T06:56:30;6.80;99.90
19033;DHT22;9649;51.042;13.804;2023-02-13T07:02:19;6.90;99.90
19033;DHT22;9649;51.042;13.804;2023-02-13T07:14:08;7.00;99.90
19033;DHT22;9649;51.042;13.804;2023-02-13T07:20:52;7.00;99.90
19033;DHT22;9649;51.042;13.804;2023-02-13T07:26:27;7.20;99.90
19033;DHT22;9649;51.042;13.804;2023-02-13T07:38:31;7.20;99.90
19033;DHT22;9649;51.042;13.804;2023-02-13T07:43:34;7.30;99.90
19033;DHT22;9649;51.042;13.804;2023-02-13T07:48:36;7.30;99.90
19033;DHT22;9649;51.042;13.804;2023-02-13T07:53:40;7.40;99.90
19033;DHT22;9649;51.042;13.804;2023-02-13T07:58:43;7.40;99.90
19033;DHT22;9649;51.042;13.804;2023-02-13T08:03:47;7.40;99.90
19033;DHT22;9649;51.042;13.804;2023-02-13T08:08:53;7.60;99.90
19033;DHT22;9649;51.042;13.804;2023-02-13T08:14:10;7.50;99.90
19033;DHT22;9649;51.042;13.804;2023-02-13T08:19:12;7.40;99.90
19033;DHT22;9649;51.042;13.804;2023-02-13T08:24:17;7.40;99.90
19033;DHT22;9649;51.042;13.804;2023-02-13T08:29:19;7.40;99.90
19033;DHT22;9649;51.042;13.804;2023-02-13T08:34:22;7.50;99.90
19033;DHT22;9649;51.042;13.804;2023-02-13T08:39:26;7.60;99.90
19033;DHT22;9649;51.042;13.804;2023-02-13T08:44:29;7.70;99.90
19033;DHT22;9649;51.042;13.804;2023-02-13T08:49:32;7.70;99.90
19033;DHT22;9649;51.042;13.804;2023-02-13T08:54:36;7.70;99.90
19033;DHT22;9649;51.042;13.804;2023-02-13T08:59:39;7.80;99.90
19033;DHT22;9649;51.042;13.804;2023-02-13T09:04:41;7.90;99.90
19033;DHT22;9649;51.042;13.804;2023-02-13T09:09:46;8.10;99.90
19033;DHT22;9649;51.042;13.804;2023-02-13T09:14:48;8.30;99.90
19033;DHT22;9649;51.042;13.804;2023-02-13T09:19:51;8.20;99.90
19033;DHT22;9649;51.042;13.804;2023-02-13T09:24:55;8.00;99.90
19033;DHT22;9649;51.042;13.804;2023-02-13T09:29:59;8.10;99.90
19033;DHT22;9649;51.042;13.804;2023-02-13T09:35:03;8.40;99.90
19033;DHT22;9649;51.042;13.804;2023-02-13T09:40:16;8.60;99.90
19033;DHT22;9649;51.042;13.804;2023-02-13T09:45:20;8.90;99.90
19033;DHT22;9649;51.042;13.804;2023-02-13T09:50:25;8.90;1.00
19033;DHT22;9649;51.042;13.804;2023-02-13T09:55:34;8.90;1.00
19033;DHT22;9649;51.042;13.804;2023-02-13T10:00:43;8.90;1.00
19033;DHT22;9649;51.042;13.804;2023-02-13T10:05:55;8.90;1.00
19033;DHT22;9649;51.042;13.804;2023-02-13T10:11:19;9.20;1.00
19033;DHT22;9649;51.042;13.804;2023-02-13T10:16:26;9.40;1.00
19033;DHT22;9649;51.042;13.804;2023-02-13T10:21:33;9.50;1.00
19033;DHT22;9649;51.042;13.804;2023-02-13T10:26:40;9.50;1.00
19033;DHT22;9649;51.042;13.804;2023-02-13T10:31:47;10.00;1.00
19033;DHT22;9649;51.042;13.804;2023-02-13T10:36:51;10.10;1.00
19033;DHT22;9649;51.042;13.804;2023-02-13T10:42:02;10.00;1.00
19033;DHT22;9649;51.042;13.804;2023-02-13T10:47:16;10.10;1.00
19033;DHT22;9649;51.042;13.804;2023-02-13T10:52:29;10.20;99.90
19033;DHT22;9649;51.042;13.804;2023-02-13T10:57:49;10.40;1.00
19033;DHT22;9649;51.042;13.804;2023-02-13T11:02:59;11.30;99.90
19033;DHT22;9649;51.042;13.804;2023-02-13T11:08:02;11.70;1.00
19033;DHT22;9649;51.042;13.804;2023-02-13T11:13:17;11.40;99.90
19033;DHT22;9649;51.042;13.804;2023-02-13T11:18:21;10.90;1.00
19033;DHT22;9649;51.042;13.804;2023-02-13T11:23:33;10.20;99.90
19033;DHT22;9649;51.042;13.804;2023-02-13T11:28:47;9.80;1.00
19033;DHT22;9649;51.042;13.804;2023-02-13T11:33:51;9.50;1.00
19033;DHT22;9649;51.042;13.804;2023-02-13T11:38:59;9.30;1.00
19033;DHT22;9649;51.042;13.804;2023-02-13T11:44:03;9.30;33.40
19033;DHT22;9649;51.042;13.804;2023-02-13T11:49:15;9.30;99.90
19033;DHT22;9649;51.042;13.804;2023-02-13T11:54:28;9.40;1.00
19033;DHT22;9649;51.042;13.804;2023-02-13T11:59:40;9.50;1.00
19033;DHT22;9649;51.042;13.804;2023-02-13T12:04:43;9.50;1.00
19033;DHT22;9649;51.042;13.804;2023-02-13T12:09:49;9.80;1.00
19033;DHT22;9649;51.042;13.804;2023-02-13T12:14:56;10.00;1.00
19033;DHT22;9649;51.042;13.804;2023-02-13T12:19:59;10.40;99.90
19033;DHT22;9649;51.042;13.804;2023-02-13T12:31:08;10.30;99.90
19033;DHT22;9649;51.042;13.804;2023-02-13T12:36:18;10.70;1.00
19033;DHT22;9649;51.042;13.804;2023-02-13T12:41:27;10.70;99.90
19033;DHT22;9649;51.042;13.804;2023-02-13T12:46:39;10.70;99.90
19033;DHT22;9649;51.042;13.804;2023-02-13T12:51:49;10.90;1.00
19033;DHT22;9649;51.042;13.804;2023-02-13T12:57:06;11.40;1.00
19033;DHT22;9649;51.042;13.804;2023-02-13T13:03:01;11.30;1.00
19033;DHT22;9649;51.042;13.804;2023-02-13T13:08:31;10.90;1.00
19033;DHT22;9649;51.042;13.804;2023-02-13T13:13:48;10.60;1.00
19033;DHT22;9649;51.042;13.804;2023-02-13T13:19:04;10.30;1.00
19033;DHT22;9649;51.042;13.804;2023-02-13T13:24:21;10.40;1.00
19033;DHT22;9649;51.042;13.804;2023-02-13T13:29:40;10.50;99.90
19033;DHT22;9649;51.042;13.804;2023-02-13T13:34:45;10.50;99.90
19033;DHT22;9649;51.042;13.804;2023-02-13T13:46:42;10.40;1.00
19033;DHT22;9649;51.042;13.804;2023-02-13T14:16:43;9.90;1.00
19033;DHT22;9649;51.042;13.804;2023-02-13T14:28:54;9.90;46.20
19033;DHT22;9649;51.042;13.804;2023-02-13T14:34:00;10.20;1.00
19033;DHT22;9649;51.042;13.804;2023-02-13T14:39:05;10.10;1.00
19033;DHT22;9649;51.042;13.804;2023-02-13T14:44:15;10.10;1.00
19033;DHT22;9649;51.042;13.804;2023-02-13T14:49:20;9.80;1.00
19033;DHT22;9649;51.042;13.804;2023-02-13T14:54:26;9.40;1.00
19033;DHT22;9649;51.042;13.804;2023-02-13T14:59:34;9.20;1.00
19033;DHT22;9649;51.042;13.804;2023-02-13T15:04:40;9.00;99.90
19033;DHT22;9649;51.042;13.804;2023-02-13T15:09:49;8.80;99.90
19033;DHT22;9649;51.042;13.804;2023-02-13T15:14:54;8.80;99.90
19033;DHT22;9649;51.042;13.804;2023-02-13T15:20:02;8.60;1.00
19033;DHT22;9649;51.042;13.804;2023-02-13T15:25:07;8.50;99.90
19033;DHT22;9649;51.042;13.804;2023-02-13T15:30:20;8.30;1.00
19033;DHT22;9649;51.042;13.804;2023-02-13T15:35:26;8.20;99.90
19033;DHT22;9649;51.042;13.804;2023-02-13T15:40:32;8.20;4.10
19033;DHT22;9649;51.042;13.804;2023-02-13T15:45:42;8.00;1.00
19033;DHT22;9649;51.042;13.804;2023-02-13T15:50:45;8.00;1.00
19033;DHT22;9649;51.042;13.804;2023-02-13T15:55:56;7.90;1.00
19033;DHT22;9649;51.042;13.804;2023-02-13T16:01:04;7.90;1.00
19033;DHT22;9649;51.042;13.804;2023-02-13T16:06:12;7.80;99.90
19033;DHT22;9649;51.042;13.804;2023-02-13T16:11:28;7.70;99.90
19033;DHT22;9649;51.042;13.804;2023-02-13T16:16:35;7.70;99.90
19033;DHT22;9649;51.042;13.804;2023-02-13T16:21:47;7.70;1.00
19033;DHT22;9649;51.042;13.804;2023-02-13T16:26:50;7.70;99.90
19033;DHT22;9649;51.042;13.804;2023-02-13T16:32:05;7.60;1.00
19033;DHT22;9649;51.042;13.804;2023-02-13T16:37:28;7.60;1.00
19033;DHT22;9649;51.042;13.804;2023-02-13T16:42:31;7.60;1.00
19033;DHT22;9649;51.042;13.804;2023-02-13T16:47:35;7.50;1.00
19033;DHT22;9649;51.042;13.804;2023-02-13T16:52:38;7.30;1.00
19033;DHT22;9649;51.042;13.804;2023-02-13T16:57:41;7.30;1.00
19033;DHT22;9649;51.042;13.804;2023-02-13T17:02:46;7.30;1.00
19033;DHT22;9649;51.042;13.804;2023-02-13T17:07:52;7.30;1.00
19033;DHT22;9649;51.042;13.804;2023-02-13T17:12:59;7.20;1.00
19033;DHT22;9649;51.042;13.804;2023-02-13T17:18:04;7.20;1.00
19033;DHT22;9649;51.042;13.804;2023-02-13T17:23:13;7.20;1.00
19033;DHT22;9649;51.042;13.804;2023-02-13T17:28:19;7.10;1.00
19033;DHT22;9649;51.042;13.804;2023-02-13T17:33:26;7.20;1.00
19033;DHT22;9649;51.042;13.804;2023-02-13T17:38:29;7.20;1.00
19033;DHT22;9649;51.042;13.804;2023-02-13T17:43:31;7.10;1.00
19033;DHT22;9649;51.042;13.804;2023-02-13T17:48:35;7.10;1.00
19033;DHT22;9649;51.042;13.804;2023-02-13T17:53:38;7.10;1.00
19033;DHT22;9649;51.042;13.804;2023-02-13T17:58:41;7.10;1.00
19033;DHT22;9649;51.042;13.804;2023-02-13T18:03:45;7.10;1.00
19033;DHT22;9649;51.042;13.804;2023-02-13T18:08:48;7.10;1.00
19033;DHT22;9649;51.042;13.804;2023-02-13T18:13:50;7.00;1.00
19033;DHT22;9649;51.042;13.804;2023-02-13T18:18:55;7.10;1.00
19033;DHT22;9649;51.042;13.804;2023-02-13T18:23:58;7.00;1.00
19033;DHT22;9649;51.042;13.804;2023-02-13T18:29:00;7.00;1.00
19033;DHT22;9649;51.042;13.804;2023-02-13T18:34:04;7.00;1.00
19033;DHT22;9649;51.042;13.804;2023-02-13T18:39:07;7.00;1.00
19033;DHT22;9649;51.042;13.804;2023-02-13T18:44:10;7.00;1.00
19033;DHT22;9649;51.042;13.804;2023-02-13T18:49:29;7.00;1.00
19033;DHT22;9649;51.042;13.804;2023-02-13T18:54:32;7.10;1.00
19033;DHT22;9649;51.042;13.804;2023-02-13T18:59:35;7.00;1.00
19033;DHT22;9649;51.042;13.804;2023-02-13T19:04:39;6.90;1.00
19033;DHT22;9649;51.042;13.804;2023-02-13T19:09:42;6.90;1.00
19033;DHT22;9649;51.042;13.804;2023-02-13T19:14:47;6.90;1.00
19033;DHT22;9649;51.042;13.804;2023-02-13T21:31:18;6.60;1.50
19033;DHT22;9649;51.042;13.804;2023-02-13T22:07:35;6.60;6.20
19033;DHT22;9649;51.042;13.804;2023-02-13T22:12:58;6.60;41.40
19033;DHT22;9649;51.042;13.804;2023-02-13T22:18:01;6.60;42.00
19033;DHT22;9649;51.042;13.804;2023-02-13T22:23:05;6.50;71.40
19033;DHT22;9649;51.042;13.804;2023-02-13T22:28:07;6.50;99.90
19033;DHT22;9649;51.042;13.804;2023-02-13T22:33:10;6.50;80.60
19033;DHT22;9649;51.042;13.804;2023-02-13T22:38:14;6.50;99.90
19033;DHT22;9649;51.042;13.804;2023-02-13T22:43:17;6.40;99.90
19033;DHT22;9649;51.042;13.804;2023-02-13T22:48:19;6.40;99.90
19033;DHT22;9649;51.042;13.804;2023-02-13T22:53:24;6.50;71.00
19033;DHT22;9649;51.042;13.804;2023-02-13T22:58:26;6.50;66.40
19033;DHT22;9649;51.042;13.804;2023-02-13T23:03:31;6.50;39.50
19033;DHT22;9649;51.042;13.804;2023-02-13T23:08:36;6.60;19.90
19033;DHT22;9649;51.042;13.804;2023-02-13T23:13:39;6.50;1.00
19033;DHT22;9649;51.042;13.804;2023-02-13T23:18:43;6.70;1.00
19033;DHT22;9649;51.042;13.804;2023-02-13T23:23:49;6.60;1.00
19033;DHT22;9649;51.042;13.804;2023-02-13T23:28:52;6.60;1.00
19033;DHT22;9649;51.042;13.804;2023-02-13T23:33:55;6.60;1.00
19033;DHT22;9649;51.042;13.804;2023-02-13T23:39:01;6.60;1.00
19033;DHT22;9649;51.042;13.804;2023-02-13T23:44:04;6.50;1.00
19033;DHT22;9649;51.042;13.804;2023-02-13T23:49:07;6.60;1.00
19033;DHT22;9649;51.042;13.804;2023-02-13T23:54:14;6.70;1.00
19033;DHT22;9649;51.042;13.804;2023-02-13T23:59:17;6.70;1.00
